Time;durP1;ratioP1;P1;durP2;ratioP2;P2;SDS_P1;SDS_P2;PMS_P1;PMS_P2;Temp;Humidity;BMP_temperature;BMP_pressure;BME280_temperature;BME280_humidity;BME280_pressure;Samples;Min_cycle;Max_cycle;Signal;HPM_P1;HPM_P2
2021/04/25 00:02:20;;;;;;;7.18;4.40;;;13.30;99.90;;;;;;5064371;28;20455;-60
2021/04/25 00:04:48;;;;;;;7.22;3.92;;;13.30;99.90;;;;;;5059632;28;20376;-61
2021/04/25 00:07:15;;;;;;;5.38;3.03;;;13.30;99.90;;;;;;5059103;28;20048;-61
2021/04/25 00:09:43;;;;;;;8.00;3.78;;;13.20;99.90;;;;;;5078849;28;20076;-59
2021/04/25 00:12:11;;;;;;;7.93;4.10;;;13.20;99.90;;;;;;5086855;28;20487;-60
2021/04/25 00:14:38;;;;;;;10.50;3.95;;;13.10;99.90;;;;;;5081986;28;20048;-60
2021/04/25 00:17:06;;;;;;;16.15;3.28;;;13.10;99.90;;;;;;5089039;28;20056;-60
2021/04/25 00:19:33;;;;;;;8.35;3.53;;;13.10;99.90;;;;;;5086267;28;20052;-60
2021/04/25 00:22:01;;;;;;;5.65;3.33;;;13.10;99.90;;;;;;5059676;28;20052;-61
2021/04/25 00:24:28;;;;;;;7.43;3.22;;;13.10;99.90;;;;;;5087769;28;20123;-61
2021/04/25 00:26:55;;;;;;;8.85;3.17;;;13.10;99.90;;;;;;5075660;28;20424;-61
2021/04/25 00:29:23;;;;;;;7.72;3.42;;;13.10;99.90;;;;;;5086828;28;20113;-61
2021/04/25 00:31:59;;;;;;;6.85;3.03;;;13.10;99.90;;;;;;5093992;28;20127;-61
2021/04/25 00:34:26;;;;;;;7.90;3.88;;;13.10;99.90;;;;;;5084976;28;20053;-60
2021/04/25 00:37:08;;;;;;;6.72;3.85;;;13.10;99.90;;;;;;5062346;28;20048;-60
2021/04/25 00:39:36;;;;;;;4.60;2.78;;;13.10;99.90;;;;;;5087360;28;20066;-61
2021/04/25 00:42:04;;;;;;;6.80;2.97;;;13.10;99.90;;;;;;5092424;28;20052;-60
2021/04/25 00:44:32;;;;;;;7.70;3.38;;;13.10;99.90;;;;;;5067016;28;20712;-60
2021/04/25 00:46:59;;;;;;;7.35;3.10;;;13.10;99.90;;;;;;5077014;28;20044;-60
2021/04/25 00:49:28;;;;;;;5.90;3.65;;;13.10;99.90;;;;;;5082526;28;20110;-60
2021/04/25 00:51:59;;;;;;;9.00;2.58;;;13.10;99.90;;;;;;5061290;28;20052;-60
2021/04/25 00:54:26;;;;;;;8.95;2.97;;;13.10;99.90;;;;;;5083519;28;20493;-60
2021/04/25 00:56:54;;;;;;;7.13;3.20;;;13.10;99.90;;;;;;5059830;28;20040;-61
2021/04/25 00:59:22;;;;;;;8.45;3.55;;;13.10;99.90;;;;;;5083516;28;20058;-61
2021/04/25 01:01:49;;;;;;;9.85;3.35;;;13.10;99.90;;;;;;5075844;28;20068;-60
2021/04/25 01:04:17;;;;;;;6.60;2.90;;;13.10;99.90;;;;;;5084109;28;20049;-60
2021/04/25 01:06:44;;;;;;;6.45;2.63;;;13.10;99.90;;;;;;5058282;28;20052;-61
2021/04/25 01:09:11;;;;;;;7.00;3.10;;;13.00;99.90;;;;;;5084542;28;20067;-60
2021/04/25 01:11:39;;;;;;;8.70;4.15;;;13.00;99.90;;;;;;5057935;28;20044;-60
2021/04/25 01:14:06;;;;;;;6.80;2.88;;;13.00;99.90;;;;;;5065245;28;20147;-60
2021/04/25 01:16:34;;;;;;;8.45;2.65;;;13.00;99.90;;;;;;5074422;28;20080;-60
2021/04/25 01:19:03;;;;;;;7.43;3.50;;;13.00;99.90;;;;;;5068755;28;20135;-60
2021/04/25 01:21:30;;;;;;;8.80;3.45;;;13.00;99.90;;;;;;5073695;28;20408;-60
2021/04/25 01:24:02;;;;;;;6.57;2.97;;;13.00;99.90;;;;;;5073357;28;20048;-60
2021/04/25 01:26:29;;;;;;;5.35;2.95;;;13.00;99.90;;;;;;5073881;28;20048;-60
2021/04/25 01:28:56;;;;;;;10.63;3.30;;;13.00;99.90;;;;;;5082537;28;20066;-61
2021/04/25 01:31:24;;;;;;;6.35;2.88;;;13.00;99.90;;;;;;5094042;28;20040;-61
2021/04/25 01:33:52;;;;;;;7.40;3.03;;;13.00;99.90;;;;;;5075524;28;20052;-60
2021/04/25 01:36:20;;;;;;;7.85;3.72;;;12.90;99.90;;;;;;5077400;28;20048;-61
2021/04/25 01:38:47;;;;;;;9.50;3.40;;;13.00;99.90;;;;;;5086656;28;20078;-60
2021/04/25 01:41:15;;;;;;;8.65;5.07;;;13.00;99.90;;;;;;5057212;28;20059;-60
2021/04/25 01:43:42;;;;;;;8.88;3.53;;;13.00;99.90;;;;;;5072727;28;20049;-61
2021/04/25 01:46:09;;;;;;;9.52;4.68;;;13.00;99.90;;;;;;5077156;28;20044;-60
2021/04/25 01:48:37;;;;;;;6.57;3.28;;;13.00;99.90;;;;;;5086852;28;20051;-61
2021/04/25 01:51:04;;;;;;;8.68;3.70;;;13.00;99.90;;;;;;5073328;28;20056;-61
2021/04/25 01:53:31;;;;;;;14.55;4.13;;;12.90;99.90;;;;;;5084003;28;20162;-60
2021/04/25 01:56:00;;;;;;;6.10;3.08;;;12.90;99.90;;;;;;5074511;28;20063;-61
2021/04/25 01:58:27;;;;;;;5.25;2.75;;;12.90;99.90;;;;;;5083469;28;20411;-60
2021/04/25 02:00:55;;;;;;;10.98;3.15;;;12.90;99.90;;;;;;5074941;28;20426;-60
2021/04/25 02:03:25;;;;;;;7.05;3.17;;;12.90;99.90;;;;;;5082937;28;20063;-60
2021/04/25 02:06:03;;;;;;;10.43;2.83;;;12.90;99.90;;;;;;5073061;28;20070;-60
2021/04/25 02:08:30;;;;;;;3.78;2.60;;;12.90;99.90;;;;;;5063514;28;20117;-61
2021/04/25 02:10:58;;;;;;;5.90;2.53;;;12.80;99.90;;;;;;5073038;28;20040;-61
2021/04/25 02:13:25;;;;;;;5.88;3.33;;;12.90;99.90;;;;;;5082945;28;20056;-60
2021/04/25 02:15:52;;;;;;;6.03;3.20;;;12.90;99.90;;;;;;5072894;28;20089;-60
2021/04/25 02:18:20;;;;;;;10.45;3.60;;;12.90;99.90;;;;;;5082529;28;20448;-61
2021/04/25 02:20:47;;;;;;;7.40;4.20;;;12.90;99.90;;;;;;5074172;28;20049;-60
2021/04/25 02:23:14;;;;;;;5.13;2.42;;;12.80;99.90;;;;;;5081265;28;20052;-60
2021/04/25 02:25:41;;;;;;;6.05;3.22;;;12.80;99.90;;;;;;5076347;28;20048;-61
2021/04/25 02:28:08;;;;;;;4.22;2.72;;;12.90;99.90;;;;;;5080724;28;20040;-60
2021/04/25 02:30:37;;;;;;;8.15;4.10;;;12.80;99.90;;;;;;5077059;28;20060;-60
2021/04/25 02:33:05;;;;;;;6.82;2.90;;;12.80;99.90;;;;;;5079888;28;20059;-60
2021/04/25 02:35:32;;;;;;;6.45;3.30;;;12.80;99.90;;;;;;5059898;28;20058;-61
2021/04/25 02:38:00;;;;;;;5.22;2.90;;;12.80;99.90;;;;;;5059176;28;20051;-60
2021/04/25 02:40:30;;;;;;;5.80;2.90;;;12.80;99.90;;;;;;5089563;28;20140;-60
2021/04/25 02:42:59;;;;;;;5.38;2.55;;;12.80;99.90;;;;;;5069898;28;20555;-61
2021/04/25 02:45:27;;;;;;;8.43;4.43;;;12.70;99.90;;;;;;5076934;28;20084;-61
2021/04/25 02:47:58;;;;;;;8.25;2.78;;;12.70;99.90;;;;;;5078184;28;20058;-61
2021/04/25 02:50:39;;;;;;;5.15;2.55;;;12.70;99.90;;;;;;5055737;28;20056;-60
2021/04/25 02:53:08;;;;;;;7.65;3.00;;;12.70;99.90;;;;;;5080944;28;20052;-61
2021/04/25 02:55:36;;;;;;;3.50;2.35;;;12.70;99.90;;;;;;5077053;28;20052;-61
2021/04/25 02:58:05;;;;;;;9.55;3.97;;;12.70;99.90;;;;;;5079453;28;20040;-60
2021/04/25 03:00:32;;;;;;;6.90;2.53;;;12.60;99.90;;;;;;5056643;28;20044;-60
2021/04/25 03:02:59;;;;;;;8.80;3.05;;;12.60;99.90;;;;;;5084809;28;20048;-61
2021/04/25 03:05:27;;;;;;;4.68;2.28;;;12.60;99.90;;;;;;5072172;28;20048;-60
2021/04/25 03:07:55;;;;;;;10.93;3.25;;;12.60;99.90;;;;;;5076990;28;20052;-61
2021/04/25 03:10:24;;;;;;;5.68;2.88;;;12.60;99.90;;;;;;5086672;28;20052;-61
2021/04/25 03:12:52;;;;;;;11.18;2.83;;;12.60;99.90;;;;;;5085589;28;20052;-61
2021/04/25 03:15:21;;;;;;;4.85;2.45;;;12.60;99.90;;;;;;5071895;28;20076;-60
2021/04/25 03:17:49;;;;;;;4.20;2.92;;;12.60;99.90;;;;;;5060690;28;20056;-60
2021/04/25 03:20:18;;;;;;;5.63;2.85;;;12.60;99.90;;;;;;5078864;28;20052;-60
2021/04/25 03:22:46;;;;;;;10.35;2.63;;;12.60;99.90;;;;;;5076658;28;20135;-60
2021/04/25 03:25:14;;;;;;;8.05;2.55;;;12.60;99.90;;;;;;5061433;28;20079;-60
2021/04/25 03:27:43;;;;;;;6.82;3.20;;;12.60;99.90;;;;;;5076192;28;20053;-61
2021/04/25 03:30:12;;;;;;;6.50;2.40;;;12.60;99.90;;;;;;5078941;28;20372;-60
2021/04/25 03:32:40;;;;;;;4.07;2.70;;;12.60;99.90;;;;;;5042394;28;20041;-60
2021/04/25 03:35:11;;;;;;;6.97;2.80;;;12.50;99.90;;;;;;5071270;28;20171;-60
2021/04/25 03:37:38;;;;;;;4.70;2.55;;;12.50;99.90;;;;;;5076643;28;20132;-60
2021/04/25 03:40:08;;;;;;;6.45;2.35;;;12.50;99.90;;;;;;5055161;28;20045;-61
2021/04/25 03:42:36;;;;;;;4.82;2.88;;;12.50;99.90;;;;;;5076151;28;20063;-60
2021/04/25 03:45:06;;;;;;;6.57;3.28;;;12.50;99.90;;;;;;5079662;28;20064;-61
2021/04/25 03:47:33;;;;;;;7.95;2.65;;;12.50;99.90;;;;;;5074482;28;20057;-60
2021/04/25 03:50:01;;;;;;;4.53;2.60;;;12.50;99.90;;;;;;5088548;28;20538;-60
2021/04/25 03:52:28;;;;;;;4.88;2.83;;;12.50;99.90;;;;;;5083851;28;20048;-61
2021/04/25 03:54:55;;;;;;;7.30;2.45;;;12.50;99.90;;;;;;5062782;28;20055;-60
2021/04/25 03:57:23;;;;;;;4.68;2.75;;;12.40;99.90;;;;;;5074129;28;20045;-61
2021/04/25 03:59:50;;;;;;;4.05;2.22;;;12.40;99.90;;;;;;5080446;28;20041;-61
2021/04/25 04:02:17;;;;;;;6.85;2.55;;;12.40;99.90;;;;;;5078102;28;20502;-60
2021/04/25 04:04:44;;;;;;;6.30;2.60;;;12.40;99.90;;;;;;5082808;28;20051;-61
2021/04/25 04:07:11;;;;;;;6.18;2.45;;;12.40;99.90;;;;;;5083948;28;20048;-60
2021/04/25 04:09:39;;;;;;;6.40;3.28;;;12.30;99.90;;;;;;5077065;28;20084;-61
2021/04/25 04:12:08;;;;;;;3.88;2.38;;;12.40;99.90;;;;;;5087971;28;20387;-60
2021/04/25 04:14:36;;;;;;;3.50;2.35;;;12.40;99.90;;;;;;5080248;28;20049;-60
2021/04/25 04:17:03;;;;;;;4.80;2.58;;;12.40;99.90;;;;;;5074065;28;20052;-60
2021/04/25 04:19:30;;;;;;;6.18;2.60;;;12.40;99.90;;;;;;5080120;28;20060;-61
2021/04/25 04:21:57;;;;;;;7.05;2.50;;;12.50;99.90;;;;;;5078893;28;20070;-60
2021/04/25 04:24:25;;;;;;;5.78;2.50;;;12.50;99.90;;;;;;5084928;28;20079;-61
2021/04/25 04:26:52;;;;;;;3.85;2.47;;;12.60;99.90;;;;;;5083550;28;20051;-61
2021/04/25 04:29:20;;;;;;;9.40;3.05;;;12.60;99.90;;;;;;5084936;28;20076;-60
2021/04/25 04:31:47;;;;;;;6.05;3.15;;;12.70;99.90;;;;;;5075914;28;20690;-61
2021/04/25 04:34:15;;;;;;;5.60;2.65;;;12.80;99.90;;;;;;5057846;28;20517;-60
2021/04/25 04:36:43;;;;;;;8.15;2.80;;;12.80;99.90;;;;;;5084232;28;20486;-60
2021/04/25 04:39:10;;;;;;;4.28;2.40;;;13.00;99.90;;;;;;5086195;28;20052;-60
2021/04/25 04:41:37;;;;;;;8.15;2.30;;;13.10;99.90;;;;;;5063279;28;20048;-60
2021/04/25 04:44:05;;;;;;;4.10;2.40;;;13.20;99.90;;;;;;5088845;28;20443;-61
2021/04/25 04:46:33;;;;;;;7.18;3.13;;;13.40;99.90;;;;;;5082095;28;20060;-60
2021/04/25 04:49:00;;;;;;;4.03;2.88;;;13.50;99.90;;;;;;5085612;28;20048;-61
2021/04/25 04:51:27;;;;;;;4.35;2.70;;;13.60;99.90;;;;;;5087292;28;20048;-60
2021/04/25 04:53:55;;;;;;;4.75;2.55;;;13.70;99.90;;;;;;5083317;28;20486;-60
2021/04/25 04:56:22;;;;;;;5.85;2.30;;;13.90;99.90;;;;;;5078057;28;20048;-61
2021/04/25 04:58:49;;;;;;;12.60;2.50;;;14.10;99.90;;;;;;5069452;28;20056;-61
2021/04/25 05:01:18;;;;;;;5.70;2.67;;;14.20;99.90;;;;;;5078134;28;20135;-60
2021/04/25 05:03:45;;;;;;;3.65;1.70;;;14.40;99.90;;;;;;5067961;28;20056;-61
2021/04/25 05:06:13;;;;;;;7.05;2.38;;;14.50;99.90;;;;;;5085375;28;20048;-61
2021/04/25 05:08:40;;;;;;;4.32;2.25;;;14.60;99.90;;;;;;5082621;28;20079;-61
2021/04/25 05:11:08;;;;;;;4.53;2.17;;;14.70;99.90;;;;;;5075332;28;20063;-60
2021/04/25 05:13:35;;;;;;;5.93;2.50;;;14.90;99.90;;;;;;5082009;28;20506;-60
2021/04/25 05:16:03;;;;;;;4.32;2.25;;;15.00;99.90;;;;;;5074381;28;20087;-61
2021/04/25 05:18:30;;;;;;;5.18;2.20;;;15.20;99.90;;;;;;5081232;28;20395;-61
2021/04/25 05:20:57;;;;;;;3.92;2.40;;;15.30;99.90;;;;;;5073832;28;20542;-61
2021/04/25 05:23:24;;;;;;;4.20;2.53;;;15.40;99.90;;;;;;5085027;28;20048;-61
2021/04/25 05:25:52;;;;;;;4.55;3.25;;;15.50;99.90;;;;;;5075332;28;20059;-61
2021/04/25 05:28:19;;;;;;;7.32;2.92;;;15.60;99.90;;;;;;5083172;28;20050;-61
2021/04/25 05:30:46;;;;;;;7.57;2.45;;;15.80;99.90;;;;;;5073955;28;20112;-61
2021/04/25 05:33:14;;;;;;;7.68;2.50;;;15.90;99.90;;;;;;5081939;28;20106;-60
2021/04/25 05:35:42;;;;;;;6.75;2.97;;;16.00;99.90;;;;;;5075774;28;20040;-61
2021/04/25 05:38:09;;;;;;;6.97;2.92;;;16.10;99.90;;;;;;5076144;28;20041;-61
2021/04/25 05:40:36;;;;;;;5.97;2.53;;;16.20;99.90;;;;;;5079253;28;20525;-61
2021/04/25 05:43:04;;;;;;;5.50;3.05;;;16.30;99.90;;;;;;5063931;28;20195;-61
2021/04/25 05:45:31;;;;;;;6.47;2.55;;;16.40;99.90;;;;;;5090835;28;20052;-61
2021/04/25 05:47:59;;;;;;;4.50;2.72;;;16.50;99.90;;;;;;5051280;28;20135;-60
2021/04/25 05:50:28;;;;;;;6.70;2.50;;;16.60;99.90;;;;;;5080524;28;20564;-62
2021/04/25 05:52:56;;;;;;;5.13;2.20;;;16.70;99.90;;;;;;5084181;28;20051;-61
2021/04/25 05:55:24;;;;;;;4.65;2.40;;;16.80;99.90;;;;;;5071720;28;20040;-61
2021/04/25 05:57:52;;;;;;;5.03;2.30;;;16.80;99.90;;;;;;5063311;28;20051;-61
2021/04/25 06:00:22;;;;;;;5.22;2.75;;;17.00;99.90;;;;;;5078885;28;20376;-61
2021/04/25 06:02:50;;;;;;;4.07;2.63;;;17.10;99.90;;;;;;5062158;28;20044;-61
2021/04/25 06:05:17;;;;;;;5.68;2.63;;;17.20;99.90;;;;;;5079830;28;20079;-61
2021/04/25 06:07:45;;;;;;;4.88;2.83;;;17.30;99.90;;;;;;5077943;28;20048;-61
2021/04/25 06:10:14;;;;;;;5.03;2.85;;;17.30;99.90;;;;;;5064071;28;20053;-61
2021/04/25 06:12:42;;;;;;;5.97;2.70;;;17.50;99.90;;;;;;5060455;28;20045;-60
2021/04/25 06:15:10;;;;;;;5.30;2.80;;;17.60;99.90;;;;;;5079772;28;20166;-59
2021/04/25 06:17:37;;;;;;;26.90;3.22;;;17.60;99.90;;;;;;5076440;28;20494;-60
2021/04/25 06:20:08;;;;;;;4.13;2.35;;;17.70;99.90;;;;;;5056668;28;20490;-60
2021/04/25 06:22:35;;;;;;;5.80;2.72;;;17.90;99.90;;;;;;5078102;28;20511;-60
2021/04/25 06:25:03;;;;;;;4.57;2.55;;;17.90;99.90;;;;;;5068149;28;20044;-60
2021/04/25 06:27:30;;;;;;;10.60;2.95;;;18.00;99.90;;;;;;5063705;28;20410;-59
2021/04/25 06:30:08;;;;;;;5.65;3.78;;;18.10;99.90;;;;;;5066700;28;20101;-58
2021/04/25 06:32:42;;;;;;;6.63;3.15;;;18.10;99.90;;;;;;5081168;28;20604;-60
2021/04/25 06:35:11;;;;;;;8.43;2.47;;;18.20;99.90;;;;;;5074638;28;20063;-59
2021/04/25 06:37:45;;;;;;;4.10;2.38;;;18.40;99.90;;;;;;5086277;28;20056;-60
2021/04/25 06:40:14;;;;;;;7.25;2.60;;;18.40;99.90;;;;;;5081553;28;20076;-60
2021/04/25 06:42:42;;;;;;;7.75;3.15;;;18.50;99.90;;;;;;5084053;28;20052;-60
2021/04/25 06:45:18;;;;;;;7.93;2.75;;;18.60;99.90;;;;;;5059955;28;20040;-59
2021/04/25 06:47:50;;;;;;;3.78;2.20;;;18.70;99.90;;;;;;5070093;28;20048;-60
2021/04/25 06:50:18;;;;;;;7.35;3.15;;;18.80;99.90;;;;;;5087584;28;20140;-60
2021/04/25 06:52:47;;;;;;;6.15;2.55;;;18.90;99.90;;;;;;5065989;28;20131;-60
2021/04/25 06:55:17;;;;;;;8.13;2.88;;;19.10;99.90;;;;;;5055707;28;20053;-60
2021/04/25 06:57:46;;;;;;;9.38;2.97;;;19.10;99.90;;;;;;5079420;28;20062;-60
2021/04/25 07:00:16;;;;;;;7.30;2.42;;;19.20;99.90;;;;;;5083310;28;20070;-60
2021/04/25 07:02:44;;;;;;;5.50;2.85;;;19.20;99.90;;;;;;5049799;28;20520;-60
2021/04/25 07:05:12;;;;;;;5.80;2.58;;;19.40;99.90;;;;;;5085654;28;20052;-60
2021/04/25 07:07:40;;;;;;;4.15;2.60;;;19.50;99.90;;;;;;5074805;28;20390;-59
2021/04/25 07:10:08;;;;;;;5.82;2.72;;;19.40;99.90;;;;;;5082425;28;20062;-60
2021/04/25 07:12:36;;;;;;;5.05;2.00;;;19.50;99.90;;;;;;5050717;28;20044;-61
2021/04/25 07:15:05;;;;;;;5.65;3.08;;;19.70;99.90;;;;;;5084727;28;20048;-60
2021/04/25 07:17:33;;;;;;;8.65;3.03;;;19.70;99.90;;;;;;5082613;28;20046;-60
2021/04/25 07:20:00;;;;;;;7.22;3.53;;;19.80;99.90;;;;;;5073883;28;20048;-52
2021/04/25 07:22:28;;;;;;;5.38;2.58;;;19.90;99.90;;;;;;5069988;28;20055;-60
2021/04/25 07:24:55;;;;;;;6.75;3.08;;;20.10;99.90;;;;;;5077483;28;20130;-60
2021/04/25 07:27:22;;;;;;;14.43;2.85;;;20.00;99.80;;;;;;5083130;28;20071;-60
2021/04/25 07:29:50;;;;;;;5.78;3.40;;;20.10;99.90;;;;;;5084975;28;20051;-60
2021/04/25 07:32:18;;;;;;;4.18;2.60;;;20.20;99.70;;;;;;5056018;28;20525;-59
2021/04/25 07:34:46;;;;;;;6.03;2.33;;;20.20;99.30;;;;;;5082838;28;20063;-60
2021/04/25 07:37:20;;;;;;;4.85;2.42;;;20.30;99.40;;;;;;5086844;28;20045;-59
2021/04/25 07:39:48;;;;;;;6.07;3.10;;;20.40;99.60;;;;;;5081774;28;20087;-59
2021/04/25 07:42:18;;;;;;;3.97;2.63;;;20.40;99.70;;;;;;5074191;28;20047;-59
2021/04/25 07:44:46;;;;;;;4.55;2.50;;;20.40;99.10;;;;;;5081830;28;20414;-60
2021/04/25 07:47:13;;;;;;;12.23;3.58;;;20.50;98.90;;;;;;5058119;28;20045;-60
2021/04/25 07:49:41;;;;;;;10.32;3.65;;;20.50;98.90;;;;;;5065920;28;20438;-60
2021/04/25 07:52:09;;;;;;;7.00;3.10;;;20.60;98.50;;;;;;5058128;28;20126;-60
2021/04/25 07:54:36;;;;;;;9.82;2.65;;;20.70;98.50;;;;;;5083096;28;20514;-60
2021/04/25 07:57:04;;;;;;;7.82;2.40;;;20.70;98.20;;;;;;5073339;28;20047;-60
2021/04/25 07:59:32;;;;;;;7.95;2.80;;;20.70;98.00;;;;;;5084458;28;20044;-58
2021/04/25 08:02:00;;;;;;;7.63;3.08;;;20.70;97.70;;;;;;5061475;28;20047;-58
2021/04/25 08:04:28;;;;;;;4.22;1.90;;;20.80;96.90;;;;;;5083901;28;20041;-58
2021/04/25 08:06:55;;;;;;;10.18;2.45;;;20.90;96.80;;;;;;5061316;28;20517;-59
2021/04/25 08:09:23;;;;;;;5.15;2.63;;;20.90;97.00;;;;;;5084055;28;20075;-58
2021/04/25 08:11:55;;;;;;;4.10;2.50;;;20.80;96.40;;;;;;5077057;28;20040;-59
2021/04/25 08:14:23;;;;;;;6.80;2.53;;;20.80;96.30;;;;;;5085513;28;20406;-59
2021/04/25 08:16:51;;;;;;;6.38;2.47;;;20.80;96.50;;;;;;5043744;28;20494;-59
2021/04/25 08:19:19;;;;;;;5.57;3.00;;;20.90;96.40;;;;;;5049636;28;20059;-59
2021/04/25 08:21:47;;;;;;;3.20;2.25;;;21.00;96.60;;;;;;5076029;28;20062;-59
2021/04/25 08:24:15;;;;;;;3.30;2.30;;;21.10;96.20;;;;;;5085119;28;20453;-60
2021/04/25 08:26:43;;;;;;;5.80;3.03;;;21.20;95.50;;;;;;5058913;28;20044;-59
2021/04/25 08:29:11;;;;;;;7.68;2.30;;;21.20;95.30;;;;;;5088024;28;20383;-59
2021/04/25 08:31:39;;;;;;;4.45;2.67;;;21.00;95.00;;;;;;5075329;28;20533;-59
2021/04/25 08:34:07;;;;;;;8.43;2.58;;;21.10;95.50;;;;;;5069558;28;20052;-60
2021/04/25 08:36:35;;;;;;;4.03;2.55;;;21.20;95.80;;;;;;5042200;28;20262;-59
2021/04/25 08:39:05;;;;;;;4.55;2.38;;;21.10;95.60;;;;;;5087351;28;20419;-60
2021/04/25 08:41:33;;;;;;;4.40;2.15;;;21.20;95.20;;;;;;5076165;28;20049;-59
2021/04/25 08:44:02;;;;;;;5.32;2.30;;;21.20;95.30;;;;;;5069348;28;20130;-60
2021/04/25 08:46:31;;;;;;;7.80;3.63;;;21.20;95.10;;;;;;5075851;28;20052;-59
2021/04/25 08:48:58;;;;;;;4.03;2.20;;;21.30;94.70;;;;;;5077699;28;20052;-60
2021/04/25 08:51:26;;;;;;;5.65;2.63;;;21.40;93.60;;;;;;5078146;28;20047;-60
2021/04/25 08:53:54;;;;;;;3.83;2.30;;;21.20;93.90;;;;;;5102280;28;20469;-60
2021/04/25 08:56:33;;;;;;;5.40;2.78;;;21.20;94.00;;;;;;5074961;28;20040;-60
2021/04/25 08:59:01;;;;;;;7.43;2.17;;;21.30;94.10;;;;;;5086732;28;20059;-60
2021/04/25 09:01:29;;;;;;;5.07;2.60;;;21.30;94.00;;;;;;5057918;28;20050;-59
2021/04/25 09:03:56;;;;;;;5.05;3.42;;;21.30;94.00;;;;;;5068792;28;20049;-60
2021/04/25 09:06:24;;;;;;;4.72;2.33;;;21.30;94.40;;;;;;5074321;28;20044;-60
2021/04/25 09:08:59;;;;;;;12.65;4.13;;;21.20;94.10;;;;;;5084515;28;20063;-60
2021/04/25 09:11:37;;;;;;;8.43;3.42;;;21.30;94.00;;;;;;5075492;28;20055;-60
2021/04/25 09:14:22;;;;;;;7.57;3.00;;;21.40;94.00;;;;;;5050055;28;20080;-60
2021/04/25 09:16:53;;;;;;;5.68;3.03;;;21.40;93.40;;;;;;5075584;28;20071;-60
2021/04/25 09:19:23;;;;;;;8.20;3.08;;;21.40;92.70;;;;;;5083246;28;20051;-60
2021/04/25 09:22:01;;;;;;;8.23;3.13;;;21.50;92.60;;;;;;5076754;28;20040;-60
2021/04/25 09:24:31;;;;;;;7.57;3.17;;;21.40;92.60;;;;;;5084123;28;20052;-60
2021/04/25 09:26:59;;;;;;;3.67;2.20;;;21.50;92.50;;;;;;5042369;28;20122;-60
2021/04/25 09:29:58;;;;;;;3.22;2.15;;;21.50;92.80;;;;;;5083883;28;20442;-60
2021/04/25 09:32:31;;;;;;;4.82;2.20;;;21.50;92.30;;;;;;5077478;28;20044;-60
2021/04/25 09:35:19;;;;;;;6.43;2.13;;;21.40;91.40;;;;;;5082108;28;20044;-58
2021/04/25 09:37:49;;;;;;;8.90;2.88;;;21.40;91.50;;;;;;5079667;28;20133;-60
2021/04/25 09:40:21;;;;;;;8.05;3.42;;;21.40;92.10;;;;;;5080967;28;20411;-60
2021/04/25 09:42:59;;;;;;;5.78;2.50;;;21.40;92.30;;;;;;5081277;28;20047;-60
2021/04/25 09:45:29;;;;;;;4.82;2.20;;;21.40;91.90;;;;;;5061608;28;20474;-60
2021/04/25 09:48:00;;;;;;;8.68;2.60;;;21.40;91.80;;;;;;5043232;28;20072;-60
2021/04/25 09:50:31;;;;;;;5.10;2.50;;;21.30;92.20;;;;;;5090434;28;20056;-60
2021/04/25 09:52:59;;;;;;;5.75;2.55;;;21.30;91.50;;;;;;5067024;28;20048;-60
2021/04/25 09:55:28;;;;;;;3.53;2.17;;;21.30;91.20;;;;;;5085373;28;20037;-60
2021/04/25 09:58:03;;;;;;;5.93;2.42;;;21.40;90.90;;;;;;5087676;28;20040;-60
2021/04/25 10:00:42;;;;;;;6.35;2.92;;;21.40;91.40;;;;;;5078581;28;20563;-61
2021/04/25 10:03:10;;;;;;;5.20;2.42;;;21.40;91.10;;;;;;5060828;28;20135;-60
2021/04/25 10:05:55;;;;;;;5.10;3.17;;;21.40;91.00;;;;;;5091609;28;20043;-60
2021/04/25 10:08:30;;;;;;;5.00;2.10;;;21.30;91.30;;;;;;5088084;28;20520;-60
2021/04/25 10:11:06;;;;;;;6.45;2.83;;;21.40;91.60;;;;;;5073533;28;20275;-60
2021/04/25 10:13:44;;;;;;;4.28;2.45;;;21.50;91.80;;;;;;5070116;28;20048;-60
2021/04/25 10:16:16;;;;;;;5.22;2.67;;;21.50;91.20;;;;;;5074114;28;20052;-61
2021/04/25 10:18:45;;;;;;;4.47;1.95;;;21.60;90.00;;;;;;5085773;28;20435;-61
2021/04/25 10:21:13;;;;;;;3.92;2.22;;;21.60;89.20;;;;;;5072407;28;20048;-61
2021/04/25 10:23:41;;;;;;;5.35;1.95;;;21.70;90.20;;;;;;5049372;28;20491;-60
2021/04/25 10:26:14;;;;;;;5.72;2.35;;;21.70;90.60;;;;;;5093170;28;20410;-61
2021/04/25 10:29:05;;;;;;;6.25;2.40;;;21.60;90.40;;;;;;5086667;28;20044;-60
2021/04/25 10:31:36;;;;;;;4.32;2.30;;;21.50;90.30;;;;;;5074039;28;20123;-60
2021/04/25 10:34:18;;;;;;;6.78;2.92;;;21.50;90.90;;;;;;5067415;28;20513;-60
2021/04/25 10:36:50;;;;;;;4.57;2.05;;;21.50;90.90;;;;;;5056753;28;20449;-61
2021/04/25 10:39:50;;;;;;;5.95;2.22;;;21.50;90.50;;;;;;5081959;28;20053;-60
2021/04/25 10:42:25;;;;;;;4.13;2.40;;;21.50;89.70;;;;;;5044198;28;20060;-61
2021/04/25 10:45:07;;;;;;;6.32;2.15;;;21.50;90.50;;;;;;5065149;28;20143;-61
2021/04/25 10:47:36;;;;;;;5.15;2.58;;;21.50;90.80;;;;;;5075359;28;20044;-61
2021/04/25 10:50:09;;;;;;;3.75;1.98;;;21.50;90.70;;;;;;5072146;28;20048;-61
2021/04/25 10:52:37;;;;;;;9.32;2.97;;;21.40;90.80;;;;;;5059229;28;20161;-61
2021/04/25 10:55:14;;;;;;;6.70;2.90;;;21.30;90.60;;;;;;5079903;28;20056;-61
2021/04/25 10:57:59;;;;;;;5.93;2.17;;;21.30;88.90;;;;;;5077570;28;20060;-61
2021/04/25 11:03:13;;;;;;;5.35;1.85;;;21.20;89.70;;;;;;5081252;28;20056;-60
2021/04/25 11:05:41;;;;;;;4.75;2.70;;;21.20;90.50;;;;;;5055696;28;20049;-60
2021/04/25 11:10:57;;;;;;;5.28;2.55;;;21.20;88.70;;;;;;5075762;28;20052;-60
2021/04/25 11:13:46;;;;;;;6.57;2.72;;;21.10;88.80;;;;;;5083348;28;20406;-60
2021/04/25 11:16:16;;;;;;;7.65;3.08;;;21.20;89.10;;;;;;5073579;28;20516;-60
2021/04/25 11:18:51;;;;;;;3.72;2.42;;;21.20;89.60;;;;;;5083398;28;20482;-59
2021/04/25 11:21:29;;;;;;;4.35;2.75;;;21.20;88.30;;;;;;5071586;28;20088;-60
2021/04/25 11:24:05;;;;;;;3.55;2.17;;;21.30;87.60;;;;;;5081488;28;20052;-60
2021/04/25 11:29:04;;;;;;;8.45;2.92;;;21.30;87.60;;;;;;5066814;28;20403;-60
2021/04/25 11:31:52;;;;;;;8.32;2.45;;;21.30;87.70;;;;;;5071410;28;20399;-60
2021/04/25 11:36:57;;;;;;;6.15;1.90;;;21.20;88.60;;;;;;5056908;28;20479;-60
2021/04/25 11:39:27;;;;;;;4.53;2.30;;;21.20;86.40;;;;;;5081825;28;20053;-60
2021/04/25 11:41:55;;;;;;;3.08;2.03;;;21.20;84.30;;;;;;5057129;28;20086;-60
2021/04/25 11:44:29;;;;;;;4.00;2.03;;;21.10;84.90;;;;;;5045325;28;20048;-59
2021/04/25 11:46:58;;;;;;;5.28;3.30;;;21.10;84.90;;;;;;5066712;28;20093;-60
2021/04/25 11:49:29;;;;;;;4.35;2.00;;;21.00;86.90;;;;;;5082063;28;20117;-60
2021/04/25 11:52:06;;;;;;;3.17;1.77;;;21.00;86.50;;;;;;5056911;28;20577;-60
2021/04/25 11:54:35;;;;;;;5.43;2.22;;;20.90;86.50;;;;;;5089890;28;20051;-61
2021/04/25 11:57:16;;;;;;;5.45;2.05;;;21.00;86.20;;;;;;5088764;28;20056;-61
2021/04/25 12:00:02;;;;;;;9.60;2.13;;;21.00;87.00;;;;;;5081612;28;20084;-60
2021/04/25 12:02:37;;;;;;;5.22;2.35;;;21.00;86.80;;;;;;5079408;28;20491;-61
2021/04/25 12:05:11;;;;;;;5.97;2.35;;;21.00;86.90;;;;;;5068386;28;20213;-60
2021/04/25 12:07:40;;;;;;;3.60;2.10;;;21.00;87.10;;;;;;5052182;28;20055;-61
2021/04/25 12:10:33;;;;;;;5.65;2.95;;;21.00;87.90;;;;;;5074392;28;20087;-60
2021/04/25 12:13:16;;;;;;;6.38;2.35;;;20.90;87.70;;;;;;5067904;28;20055;-61
2021/04/25 12:15:57;;;;;;;6.93;2.78;;;20.90;86.90;;;;;;5072158;28;20041;-60
2021/04/25 12:18:43;;;;;;;4.63;1.95;;;20.90;85.70;;;;;;5082789;28;20086;-60
2021/04/25 12:21:21;;;;;;;5.72;2.15;;;20.90;84.80;;;;;;5067034;28;20402;-60
2021/04/25 12:23:53;;;;;;;5.38;2.53;;;20.70;83.70;;;;;;5088570;28;20040;-60
2021/04/25 12:26:23;;;;;;;4.30;2.35;;;20.70;83.60;;;;;;5089292;28;20490;-60
2021/04/25 12:28:53;;;;;;;3.80;1.88;;;20.70;85.10;;;;;;5070858;28;20058;-60
2021/04/25 12:31:24;;;;;;;4.85;2.53;;;20.70;84.80;;;;;;5089515;28;20076;-61
2021/04/25 12:33:55;;;;;;;4.28;1.98;;;20.70;86.00;;;;;;5071763;28;20055;-60
2021/04/25 12:36:25;;;;;;;4.05;1.90;;;20.70;84.10;;;;;;5086210;28;20056;-60
2021/04/25 12:38:57;;;;;;;3.80;2.20;;;20.60;83.20;;;;;;5082581;28;20059;-60
2021/04/25 12:41:24;;;;;;;3.75;2.67;;;20.60;84.00;;;;;;5043886;28;20044;-60
2021/04/25 12:43:55;;;;;;;8.60;2.67;;;20.60;84.20;;;;;;5068262;28;20056;-60
2021/04/25 12:46:25;;;;;;;4.25;2.45;;;20.50;83.10;;;;;;5087315;28;20135;-60
2021/04/25 12:49:13;;;;;;;4.53;2.08;;;20.40;83.40;;;;;;5089341;28;20047;-59
2021/04/25 12:51:41;;;;;;;5.25;1.83;;;20.40;84.70;;;;;;5075183;28;20048;-60
2021/04/25 12:54:17;;;;;;;6.05;2.25;;;20.40;83.40;;;;;;5091675;28;20051;-60
2021/04/25 12:56:46;;;;;;;4.57;2.55;;;20.40;82.10;;;;;;5094262;28;20044;-60
2021/04/25 12:59:35;;;;;;;4.93;2.10;;;20.30;82.80;;;;;;5087413;28;20058;-60
2021/04/25 13:02:03;;;;;;;3.92;1.88;;;20.30;81.90;;;;;;5061788;28;20053;-60
2021/04/25 13:04:48;;;;;;;4.05;1.95;;;20.30;81.40;;;;;;5083939;28;20135;-60
2021/04/25 13:07:25;;;;;;;4.35;1.98;;;20.30;83.10;;;;;;5087737;28;20090;-59
2021/04/25 13:09:58;;;;;;;5.45;2.30;;;20.40;83.90;;;;;;5072756;28;20139;-60
2021/04/25 13:12:37;;;;;;;4.28;2.13;;;20.40;83.80;;;;;;5067012;28;20057;-60